< Typhoon 195510 1955 Season Typhoon 195512 >
Typhoon 195511 (FRAN)
General InformationTrack Information on Google Maps || Disaster Info.ResourceGoogle EarthGE AnimationAtom FeedGeoJSON
Detalied Best Track (Time Zone = UTC)
Year Month Day Hour Lat. Long. Pressure (hPa) Wind (kt) Class Image Chart
1955 7 18 18 22.0 133.3 998 0 9 -- Chart
1955 7 19 00 21.8 133.7 995 0 9 -- Chart
1955 7 19 06 22.3 135.0 980 0 9 -- Chart
1955 7 19 12 24.2 136.1 980 0 9 -- Chart
1955 7 19 18 26.2 137.1 975 0 9 -- Chart
1955 7 20 00 28.3 138.3 965 0 9 -- Chart
1955 7 20 06 30.1 139.3 965 0 9 -- Chart
1955 7 20 12 32.1 140.0 980 0 9 -- Chart
1955 7 20 18 33.6 140.7 990 0 9 -- Chart
1955 7 21 00 35.0 142.5 994 0 9 -- Chart
1955 7 21 06 36.1 144.7 994 0 9 -- Chart
1955 7 21 12 36.2 146.4 994 0 9 -- Chart
1955 7 21 18 37.2 147.7 994 0 9 -- Chart
1955 7 22 00 38.0 152.0 996 0 9 -- Chart
1955 7 22 06 38.0 154.0 998 0 9 -- Chart
1955 7 22 12 39.7 157.2 1000 0 6 -- Chart
1955 7 22 18 41.0 160.0 1004 0 6 -- Chart
1955 7 23 00 41.9 163.3 1004 0 6 -- Chart
1955 7 23 06 42.3 166.8 1004 0 6 -- Chart
1955 7 23 12 42.8 170.0 1004 0 6 -- Chart
1955 7 23 18 43.7 173.2 1004 0 6 -- Chart
1955 7 24 00 45.0 176.0 1004 0 6 -- Chart
1955 7 24 06 47.5 180.0 1008 0 6 -- Chart
1955 7 24 12 49.0 183.0 1008 0 6 -- Chart
Japan Meteorological Agency Best Track Data | Correction Date : 1991-07-16
< Typhoon 195510 1955 Season Typhoon 195512 >

Help